Time;durP1;ratioP1;P1;durP2;ratioP2;P2;SDS_P1;SDS_P2;PMS_P1;PMS_P2;Temp;Humidity;BMP_temperature;BMP_pressure;BME280_temperature;BME280_humidity;BME280_pressure;Samples;Min_cycle;Max_cycle;Signal;HPM_P1;HPM_P2
2021/10/27 00:02:14;;;;;;;8.48;2.45;;;27.60;91.30;;;;;;5083236;28;20028;-50
2021/10/27 00:04:40;;;;;;;9.65;2.38;;;27.60;91.40;;;;;;5086302;28;20194;-51
2021/10/27 00:07:08;;;;;;;11.07;2.92;;;27.60;91.40;;;;;;5085496;28;20048;-53
2021/10/27 00:09:35;;;;;;;8.63;2.50;;;27.60;91.40;;;;;;5085362;28;20099;-55
2021/10/27 00:12:02;;;;;;;4.78;2.10;;;27.60;91.40;;;;;;5085451;28;20316;-50
2021/10/27 00:14:29;;;;;;;11.73;2.42;;;27.60;91.40;;;;;;5087064;28;20021;-53
2021/10/27 00:16:59;;;;;;;11.77;2.50;;;27.60;91.50;;;;;;5086334;28;20028;-52
2021/10/27 00:19:26;;;;;;;11.50;2.75;;;27.60;91.50;;;;;;5086787;28;20209;-52
2021/10/27 00:21:53;;;;;;;13.10;2.33;;;27.60;91.50;;;;;;5085308;28;20027;-52
2021/10/27 00:24:20;;;;;;;18.63;2.92;;;27.60;91.50;;;;;;5085198;28;20024;-50
2021/10/27 00:26:46;;;;;;;14.90;2.50;;;27.60;91.60;;;;;;5086313;28;20016;-49
2021/10/27 00:29:13;;;;;;;31.83;3.38;;;27.60;91.60;;;;;;5085140;28;20039;-53
2021/10/27 00:31:43;;;;;;;12.98;3.10;;;27.50;91.60;;;;;;5085273;28;20031;-57
2021/10/27 00:34:10;;;;;;;25.05;3.97;;;27.50;91.60;;;;;;5085192;28;20020;-54
2021/10/27 00:36:37;;;;;;;43.78;6.32;;;27.50;91.60;;;;;;5086370;28;20013;-55
2021/10/27 00:39:04;;;;;;;24.33;6.85;;;27.60;91.70;;;;;;5086276;28;20024;-54
2021/10/27 00:41:30;;;;;;;25.27;5.38;;;27.60;91.70;;;;;;5086138;28;20012;-53
2021/10/27 00:43:57;;;;;;;23.23;4.55;;;27.60;91.70;;;;;;5086281;28;20048;-52
2021/10/27 00:46:26;;;;;;;26.05;4.82;;;27.60;91.70;;;;;;5085701;28;20020;-51
2021/10/27 00:48:52;;;;;;;22.77;3.78;;;27.60;91.70;;;;;;5085674;28;20083;-52
2021/10/27 00:51:20;;;;;;;13.95;3.45;;;27.60;91.70;;;;;;5085811;28;20039;-57
2021/10/27 00:53:47;;;;;;;18.63;3.97;;;27.60;91.70;;;;;;5085947;28;20021;-56
2021/10/27 00:56:16;;;;;;;17.27;4.93;;;27.60;91.80;;;;;;5085618;28;20028;-52
2021/10/27 00:58:44;;;;;;;15.55;5.10;;;27.60;91.70;;;;;;5086020;28;20082;-52
2021/10/27 01:01:10;;;;;;;14.65;3.80;;;27.60;91.80;;;;;;5085579;28;20016;-52
2021/10/27 01:03:37;;;;;;;19.27;6.60;;;27.60;91.80;;;;;;5085896;28;20035;-47
2021/10/27 01:06:05;;;;;;;16.73;5.20;;;27.60;91.90;;;;;;5085474;28;20022;-49
2021/10/27 01:08:33;;;;;;;18.15;5.80;;;27.60;91.80;;;;;;5085358;28;20225;-55
2021/10/27 01:11:00;;;;;;;15.50;5.50;;;27.60;91.80;;;;;;5085356;28;20047;-55
2021/10/27 01:13:27;;;;;;;13.93;5.20;;;27.60;91.90;;;;;;5085387;28;20213;-58
2021/10/27 01:15:54;;;;;;;10.35;4.65;;;27.60;91.80;;;;;;5085021;28;20299;-55
2021/10/27 01:18:20;;;;;;;16.02;4.38;;;27.60;92.00;;;;;;5085570;28;20059;-59
2021/10/27 01:20:48;;;;;;;10.38;4.18;;;27.60;91.80;;;;;;5085179;28;20016;-56
2021/10/27 01:23:15;;;;;;;10.50;4.10;;;27.60;91.70;;;;;;5085043;28;20028;-58
2021/10/27 01:25:41;;;;;;;10.18;4.10;;;27.50;91.80;;;;;;5085282;28;20024;-53
2021/10/27 01:28:08;;;;;;;8.27;4.10;;;27.50;91.80;;;;;;5085061;28;20028;-53
2021/10/27 01:30:35;;;;;;;8.35;4.05;;;27.50;91.70;;;;;;5084814;28;20069;-52
2021/10/27 01:33:02;;;;;;;11.48;4.03;;;27.50;91.70;;;;;;5083975;28;20031;-54
2021/10/27 01:35:29;;;;;;;9.82;4.10;;;27.50;91.90;;;;;;5084977;28;20020;-53
2021/10/27 01:37:56;;;;;;;7.93;4.00;;;27.50;91.80;;;;;;5084606;28;20142;-52
2021/10/27 01:40:23;;;;;;;10.15;4.25;;;27.50;91.70;;;;;;5084737;28;20376;-53
2021/10/27 01:42:54;;;;;;;8.15;3.90;;;27.50;91.70;;;;;;5084683;28;20031;-51
2021/10/27 01:45:21;;;;;;;10.15;3.90;;;27.50;91.60;;;;;;5084721;28;20099;-54
2021/10/27 01:47:48;;;;;;;6.47;3.10;;;27.50;91.60;;;;;;5084648;28;20351;-53
2021/10/27 01:50:15;;;;;;;11.27;3.65;;;27.50;91.60;;;;;;5084485;28;20052;-53
2021/10/27 01:52:42;;;;;;;9.35;3.63;;;27.50;91.60;;;;;;5084425;28;20085;-53
2021/10/27 01:55:09;;;;;;;8.25;3.10;;;27.50;91.60;;;;;;5085055;28;20021;-50
2021/10/27 01:57:36;;;;;;;10.10;3.28;;;27.50;91.50;;;;;;5084471;28;20043;-52
2021/10/27 02:00:06;;;;;;;6.18;3.08;;;27.50;91.40;;;;;;5084729;28;20309;-53
2021/10/27 02:02:32;;;;;;;10.45;3.55;;;27.50;91.40;;;;;;5084475;28;20025;-53
2021/10/27 02:04:59;;;;;;;9.30;3.17;;;27.50;91.30;;;;;;5084812;28;20047;-52
2021/10/27 02:07:26;;;;;;;7.80;3.50;;;27.50;91.30;;;;;;5084271;28;20024;-53
2021/10/27 02:09:52;;;;;;;8.48;3.33;;;27.40;91.20;;;;;;5084601;28;20117;-55
2021/10/27 02:12:19;;;;;;;11.25;3.55;;;27.40;91.20;;;;;;5084441;28;20031;-54
2021/10/27 02:14:46;;;;;;;9.40;3.28;;;27.40;91.20;;;;;;5084563;28;20293;-54
2021/10/27 02:17:13;;;;;;;9.98;3.45;;;27.50;91.30;;;;;;5084237;28;20320;-54
2021/10/27 02:19:39;;;;;;;7.22;4.30;;;27.40;91.20;;;;;;5084720;28;20031;-54
2021/10/27 02:22:07;;;;;;;7.80;4.75;;;27.50;91.30;;;;;;5084011;28;20029;-53
2021/10/27 02:24:33;;;;;;;7.75;4.72;;;27.40;91.20;;;;;;5084491;28;20046;-53
2021/10/27 02:27:00;;;;;;;10.38;5.05;;;27.50;91.20;;;;;;5083642;28;20048;-54
2021/10/27 02:29:27;;;;;;;12.27;4.47;;;27.40;91.20;;;;;;5082909;28;20078;-51
2021/10/27 02:31:54;;;;;;;7.97;4.00;;;27.40;91.10;;;;;;5084047;28;20024;-53
2021/10/27 02:34:21;;;;;;;8.98;4.25;;;27.40;91.10;;;;;;5084331;28;20012;-55
2021/10/27 02:36:47;;;;;;;9.18;4.32;;;27.40;91.00;;;;;;5083919;28;20088;-55
2021/10/27 02:39:17;;;;;;;6.60;3.92;;;27.40;90.90;;;;;;5084131;28;20053;-54
2021/10/27 02:41:43;;;;;;;4.80;3.38;;;27.40;91.00;;;;;;5084019;28;20028;-54
2021/10/27 02:44:10;;;;;;;10.35;4.00;;;27.40;91.00;;;;;;5084027;28;20025;-55
2021/10/27 02:46:39;;;;;;;7.90;4.07;;;27.40;90.90;;;;;;5082695;28;20095;-53
2021/10/27 02:49:06;;;;;;;7.53;3.53;;;27.40;91.00;;;;;;5083768;28;20082;-53
2021/10/27 02:51:33;;;;;;;9.23;3.42;;;27.40;91.00;;;;;;5083777;28;20309;-54
2021/10/27 02:54:00;;;;;;;8.05;4.10;;;27.40;91.00;;;;;;5083785;28;20368;-54
2021/10/27 02:56:27;;;;;;;10.25;3.67;;;27.40;91.00;;;;;;5083908;28;20080;-52
2021/10/27 02:58:54;;;;;;;6.80;3.42;;;27.40;91.00;;;;;;5084096;28;20088;-53
2021/10/27 03:01:20;;;;;;;5.90;3.00;;;27.40;91.00;;;;;;5083658;28;20070;-55
2021/10/27 03:03:48;;;;;;;6.90;2.95;;;27.40;91.00;;;;;;5083782;28;20021;-54
2021/10/27 03:06:15;;;;;;;8.77;2.97;;;27.40;91.00;;;;;;5083547;28;20029;-54
2021/10/27 03:08:42;;;;;;;6.72;3.47;;;27.30;91.00;;;;;;5083707;28;20037;-55
2021/10/27 03:11:09;;;;;;;7.97;3.13;;;27.40;91.00;;;;;;5083690;28;20092;-54
2021/10/27 03:13:36;;;;;;;9.00;3.30;;;27.30;91.00;;;;;;5083706;28;20089;-54
2021/10/27 03:16:03;;;;;;;6.72;3.40;;;27.30;91.00;;;;;;5083678;28;20024;-53
2021/10/27 03:18:30;;;;;;;6.57;3.08;;;27.30;91.00;;;;;;5065875;28;20024;-53
2021/10/27 03:20:56;;;;;;;5.97;3.28;;;27.30;91.00;;;;;;5082347;28;20021;-54
2021/10/27 03:23:23;;;;;;;7.88;2.97;;;27.30;91.30;;;;;;5083672;28;20071;-54
2021/10/27 03:25:50;;;;;;;5.40;2.85;;;27.30;91.10;;;;;;5083750;28;20317;-52
2021/10/27 03:28:17;;;;;;;6.43;2.97;;;27.30;91.10;;;;;;5083332;28;20028;-54
2021/10/27 03:30:43;;;;;;;5.88;2.72;;;27.30;91.10;;;;;;5082332;28;20032;-54
2021/10/27 03:33:10;;;;;;;5.80;2.70;;;27.30;91.10;;;;;;5083447;28;20020;-53
2021/10/27 03:35:37;;;;;;;7.03;2.58;;;27.30;91.00;;;;;;5083237;28;20028;-52
2021/10/27 03:38:04;;;;;;;8.10;2.83;;;27.30;91.00;;;;;;5082678;28;20016;-56
2021/10/27 03:40:31;;;;;;;11.82;2.97;;;27.20;91.00;;;;;;5087216;28;20020;-54
2021/10/27 03:42:57;;;;;;;11.02;3.08;;;27.30;91.00;;;;;;5087962;28;20016;-55
2021/10/27 03:45:24;;;;;;;9.23;2.78;;;27.20;90.90;;;;;;5087768;28;20039;-54
2021/10/27 03:47:51;;;;;;;11.07;2.85;;;27.20;90.90;;;;;;5087304;28;20020;-55
2021/10/27 03:50:18;;;;;;;12.90;2.83;;;27.30;90.90;;;;;;5085665;28;20388;-54
2021/10/27 03:52:44;;;;;;;12.38;3.22;;;27.20;90.90;;;;;;5087581;28;20047;-55
2021/10/27 03:55:12;;;;;;;15.65;3.17;;;27.30;91.00;;;;;;5086830;28;20024;-55
2021/10/27 03:57:38;;;;;;;16.27;3.40;;;27.20;90.90;;;;;;5086887;28;20028;-55
2021/10/27 04:00:08;;;;;;;14.73;3.47;;;27.30;90.90;;;;;;5087505;28;20059;-52
2021/10/27 04:02:38;;;;;;;10.63;3.22;;;27.20;90.90;;;;;;5086700;28;20048;-53
2021/10/27 04:05:06;;;;;;;26.55;3.35;;;27.20;90.90;;;;;;5087023;28;20237;-51
2021/10/27 04:07:36;;;;;;;17.40;3.13;;;27.20;91.00;;;;;;5086705;28;20103;-53
2021/10/27 04:10:06;;;;;;;13.45;3.17;;;27.20;91.00;;;;;;5087102;28;20059;-55
2021/10/27 04:12:34;;;;;;;19.83;2.90;;;27.30;91.00;;;;;;5086469;28;20032;-54
2021/10/27 04:15:02;;;;;;;16.52;3.22;;;27.20;90.90;;;;;;5086988;28;20186;-53
2021/10/27 04:17:29;;;;;;;12.43;3.55;;;27.20;90.90;;;;;;5086417;28;20039;-53
2021/10/27 04:19:57;;;;;;;18.42;3.00;;;27.20;90.90;;;;;;5085248;28;20028;-53
2021/10/27 04:22:24;;;;;;;17.73;3.35;;;27.20;91.00;;;;;;5086485;28;20115;-55
2021/10/27 04:24:51;;;;;;;15.48;3.10;;;27.20;91.00;;;;;;5086523;28;20036;-54
2021/10/27 04:27:18;;;;;;;12.07;2.83;;;27.20;91.00;;;;;;5086160;28;20020;-54
2021/10/27 04:29:44;;;;;;;11.02;2.85;;;27.20;91.10;;;;;;5086484;28;20056;-54
2021/10/27 04:32:11;;;;;;;9.05;2.60;;;27.20;91.10;;;;;;5086151;28;20044;-53
2021/10/27 04:34:38;;;;;;;9.40;2.70;;;27.20;91.10;;;;;;5086353;28;20024;-51
2021/10/27 04:37:05;;;;;;;11.35;2.88;;;27.20;91.10;;;;;;5086120;28;20017;-53
2021/10/27 04:39:31;;;;;;;13.15;2.85;;;27.20;91.10;;;;;;5086424;28;20362;-53
2021/10/27 04:41:58;;;;;;;16.95;2.78;;;27.20;91.20;;;;;;5085795;28;20082;-54
2021/10/27 04:44:25;;;;;;;12.82;2.85;;;27.20;91.10;;;;;;5086204;28;20028;-53
2021/10/27 04:46:51;;;;;;;16.85;2.75;;;27.20;91.40;;;;;;5085855;28;20032;-54
2021/10/27 04:49:18;;;;;;;14.13;2.88;;;27.20;91.10;;;;;;5085045;28;20056;-52
2021/10/27 04:51:45;;;;;;;14.98;2.80;;;27.20;91.10;;;;;;5085816;28;20301;-51
2021/10/27 04:54:11;;;;;;;10.93;3.30;;;27.20;91.10;;;;;;5085980;28;20070;-52
2021/10/27 04:56:38;;;;;;;15.80;3.22;;;27.20;91.10;;;;;;5085693;28;20016;-57
2021/10/27 04:59:04;;;;;;;9.15;2.78;;;27.20;91.10;;;;;;5085899;28;20059;-49
2021/10/27 05:01:31;;;;;;;9.45;2.53;;;27.20;91.10;;;;;;5085690;28;20058;-51
2021/10/27 05:03:58;;;;;;;14.95;2.88;;;27.20;91.20;;;;;;5085912;28;20025;-54
2021/10/27 05:06:24;;;;;;;8.88;2.28;;;27.20;91.20;;;;;;5085467;28;20480;-57
2021/10/27 05:08:51;;;;;;;7.50;2.33;;;27.10;91.20;;;;;;5085681;28;20033;-58
2021/10/27 05:11:18;;;;;;;11.15;2.60;;;27.20;91.20;;;;;;5085365;28;20012;-57
2021/10/27 05:13:46;;;;;;;9.27;2.20;;;27.20;91.20;;;;;;5085393;28;20031;-51
2021/10/27 05:16:13;;;;;;;14.93;3.05;;;27.10;91.20;;;;;;5085526;28;20036;-52
2021/10/27 05:18:40;;;;;;;11.15;2.83;;;27.20;91.30;;;;;;5085434;28;20320;-55
2021/10/27 05:21:06;;;;;;;6.95;2.20;;;27.10;91.30;;;;;;5085135;28;20020;-54
2021/10/27 05:23:35;;;;;;;12.35;2.60;;;27.10;91.30;;;;;;5085069;28;20034;-53
2021/10/27 05:26:02;;;;;;;9.13;2.10;;;27.10;91.30;;;;;;5085134;28;20016;-57
2021/10/27 05:28:29;;;;;;;5.28;2.42;;;27.10;91.30;;;;;;5085076;28;20096;-56
2021/10/27 05:30:56;;;;;;;9.00;2.47;;;27.10;91.40;;;;;;5084943;28;20305;-52
2021/10/27 05:33:23;;;;;;;11.82;2.40;;;27.10;91.40;;;;;;5085037;28;20301;-51
2021/10/27 05:35:49;;;;;;;8.52;2.53;;;27.10;91.30;;;;;;5085056;28;20300;-55
2021/10/27 05:38:16;;;;;;;7.35;2.35;;;27.10;91.40;;;;;;5084940;28;20258;-53
2021/10/27 05:40:42;;;;;;;6.95;2.15;;;27.10;91.40;;;;;;5084809;28;20054;-54
2021/10/27 05:43:13;;;;;;;5.90;2.47;;;27.00;91.40;;;;;;5084697;28;20313;-53
2021/10/27 05:45:40;;;;;;;12.05;2.70;;;27.10;91.40;;;;;;5084696;28;20217;-55
2021/10/27 05:48:08;;;;;;;7.85;2.15;;;27.00;91.30;;;;;;5085095;28;20035;-51
2021/10/27 05:55:49;;;;;;;10.82;2.55;;;27.00;91.30;;;;;;5084420;28;20031;-56
2021/10/27 05:58:16;;;;;;;7.10;2.10;;;27.00;91.40;;;;;;5084734;28;20239;-55
2021/10/27 06:00:44;;;;;;;5.43;2.55;;;27.10;91.40;;;;;;5083730;28;20066;-54
2021/10/27 06:03:12;;;;;;;6.88;2.30;;;27.00;91.40;;;;;;5084286;28;20069;-57
2021/10/27 06:05:38;;;;;;;4.75;2.00;;;27.10;91.40;;;;;;5084428;28;20027;-58
2021/10/27 06:08:06;;;;;;;8.05;2.30;;;27.10;91.40;;;;;;5084279;28;20263;-55
2021/10/27 06:10:33;;;;;;;8.07;2.22;;;27.00;91.30;;;;;;5082946;28;20024;-57
2021/10/27 06:13:07;;;;;;;7.53;2.33;;;27.00;91.30;;;;;;5084354;28;20299;-57
2021/10/27 06:15:35;;;;;;;9.38;2.17;;;27.00;91.30;;;;;;5084188;28;20323;-57
2021/10/27 06:18:02;;;;;;;4.95;2.15;;;27.00;91.30;;;;;;5084227;28;20032;-56
2021/10/27 06:20:30;;;;;;;7.07;2.55;;;27.00;91.40;;;;;;5084324;28;20067;-57
2021/10/27 06:22:57;;;;;;;8.35;2.30;;;27.00;91.50;;;;;;5084021;28;20020;-58
2021/10/27 06:25:25;;;;;;;8.30;2.38;;;27.00;91.50;;;;;;5084073;28;20020;-56
2021/10/27 06:28:00;;;;;;;6.20;1.88;;;27.00;91.50;;;;;;5084089;28;20087;-57
2021/10/27 06:30:31;;;;;;;11.35;2.50;;;27.00;91.60;;;;;;5083848;28;20021;-57
2021/10/27 06:33:16;;;;;;;7.18;2.40;;;27.00;91.50;;;;;;5084032;28;20304;-57
2021/10/27 06:35:45;;;;;;;8.85;2.42;;;27.00;91.50;;;;;;5083878;28;20115;-56
2021/10/27 06:46:29;;;;;;;15.15;2.95;;;27.00;91.50;;;;;;5083933;28;20366;-58
2021/10/27 06:48:56;;;;;;;22.73;3.28;;;27.00;91.60;;;;;;5083817;28;20053;-58
2021/10/27 06:51:22;;;;;;;15.48;2.78;;;26.90;91.60;;;;;;5083753;28;20023;-58
2021/10/27 06:53:49;;;;;;;10.50;2.65;;;26.90;91.60;;;;;;5083838;28;20338;-60
2021/10/27 06:56:18;;;;;;;10.10;2.63;;;26.90;91.70;;;;;;5084496;28;20016;-58
2021/10/27 06:58:50;;;;;;;16.08;3.08;;;26.90;91.70;;;;;;5084062;28;20021;-58
2021/10/27 07:01:25;;;;;;;7.10;2.40;;;26.90;91.70;;;;;;5084840;28;20316;-59
2021/10/27 07:04:28;;;;;;;15.55;3.30;;;26.90;91.70;;;;;;5084013;28;20028;-59
2021/10/27 07:07:00;;;;;;;13.20;2.95;;;26.90;91.70;;;;;;5083600;28;20027;-55
2021/10/27 07:17:33;;;;;;;20.48;2.65;;;26.90;91.90;;;;;;5087610;28;20085;-54
2021/10/27 07:20:06;;;;;;;18.33;3.05;;;26.90;92.00;;;;;;5087917;28;20054;-45
2021/10/27 07:22:35;;;;;;;17.15;2.70;;;26.90;92.00;;;;;;5087435;28;20051;-47
2021/10/27 07:25:02;;;;;;;19.50;2.60;;;26.90;92.10;;;;;;5087905;28;20235;-50
2021/10/27 07:27:31;;;;;;;11.95;2.17;;;26.90;92.00;;;;;;5086251;28;20036;-52
2021/10/27 07:29:58;;;;;;;15.40;2.83;;;26.90;92.10;;;;;;5087725;28;20055;-54
2021/10/27 07:32:25;;;;;;;14.80;2.58;;;26.90;92.10;;;;;;5087224;28;20059;-50
2021/10/27 07:35:01;;;;;;;12.50;2.60;;;26.90;92.10;;;;;;5087677;28;20032;-52
2021/10/27 07:43:15;;;;;;;12.15;2.38;;;26.90;92.20;;;;;;5087060;28;20084;-45
2021/10/27 07:45:44;;;;;;;9.90;2.30;;;26.90;92.20;;;;;;5087060;28;20048;-52
2021/10/27 07:48:11;;;;;;;13.75;2.28;;;26.90;92.30;;;;;;5087031;28;20063;-54
2021/10/27 07:50:38;;;;;;;7.55;2.35;;;26.90;92.40;;;;;;5086747;28;20256;-54
2021/10/27 07:53:08;;;;;;;9.70;2.50;;;26.90;92.30;;;;;;5086895;28;20032;-53
2021/10/27 07:55:41;;;;;;;9.75;2.35;;;26.90;92.40;;;;;;5087056;28;20017;-55
2021/10/27 07:58:09;;;;;;;13.40;2.55;;;26.90;92.40;;;;;;5086877;28;20091;-53
2021/10/27 08:00:37;;;;;;;8.35;2.50;;;26.90;92.50;;;;;;5086813;28;20021;-59
2021/10/27 08:03:04;;;;;;;8.18;2.45;;;26.90;92.60;;;;;;5086588;28;20020;-52
2021/10/27 08:05:43;;;;;;;12.00;2.20;;;26.90;92.60;;;;;;5086701;28;20087;-48
2021/10/27 08:08:13;;;;;;;5.15;2.22;;;26.90;92.60;;;;;;5086691;28;20036;-46
2021/10/27 08:10:41;;;;;;;6.47;2.20;;;26.90;92.60;;;;;;5086564;28;20059;-47
2021/10/27 08:13:12;;;;;;;13.82;2.10;;;26.90;92.70;;;;;;5086551;28;20025;-48
2021/10/27 08:15:38;;;;;;;8.85;2.05;;;26.90;92.70;;;;;;5086381;28;20017;-51
2021/10/27 08:18:17;;;;;;;9.63;2.40;;;26.80;92.70;;;;;;5086466;28;20036;-48
2021/10/27 08:20:47;;;;;;;9.95;2.25;;;26.80;92.70;;;;;;5086435;28;20233;-50
2021/10/27 08:23:15;;;;;;;8.85;2.10;;;26.80;92.70;;;;;;5086240;28;20236;-50
2021/10/27 08:25:46;;;;;;;8.63;1.95;;;26.90;92.80;;;;;;5085917;28;20235;-52
2021/10/27 08:28:19;;;;;;;6.35;1.85;;;26.90;92.70;;;;;;5086207;28;20047;-51
2021/10/27 08:34:09;;;;;;;7.13;1.70;;;26.90;92.60;;;;;;5086287;28;20297;-49
2021/10/27 08:36:06;;;;;;;7.97;2.03;;;26.90;92.70;;;;;;5085674;28;20324;-47
2021/10/27 08:38:34;;;;;;;8.45;1.75;;;26.90;92.60;;;;;;5086091;28;20031;-48
2021/10/27 08:41:04;;;;;;;7.60;1.50;;;26.90;92.60;;;;;;5085927;28;20025;-47
2021/10/27 08:43:32;;;;;;;5.95;1.60;;;26.90;92.60;;;;;;5086251;28;20031;-47
2021/10/27 08:46:01;;;;;;;5.22;1.67;;;26.90;92.60;;;;;;5086032;28;20016;-47
2021/10/27 08:48:33;;;;;;;6.35;1.63;;;26.90;92.60;;;;;;5085908;28;20039;-48
2021/10/27 08:51:04;;;;;;;;;;;26.90;92.60;;;;;;5086278;28;20100;-48
2021/10/27 08:53:31;;;;;;;5.80;1.40;;;26.90;92.60;;;;;;5085878;28;20185;-47
2021/10/27 08:56:01;;;;;;;4.93;1.65;;;26.90;92.70;;;;;;5085877;28;20216;-49
2021/10/27 08:58:32;;;;;;;4.18;1.35;;;26.90;92.70;;;;;;5085872;28;20062;-48
2021/10/27 09:01:15;;;;;;;6.32;1.73;;;26.90;92.70;;;;;;5085578;28;20021;-49
2021/10/27 09:04:06;;;;;;;5.57;1.25;;;26.90;92.70;;;;;;5085853;28;20036;-48
2021/10/27 09:06:41;;;;;;;4.97;1.60;;;26.90;92.70;;;;;;5085727;28;20017;-48
2021/10/27 09:14:50;;;;;;;8.43;1.55;;;26.90;92.80;;;;;;5086119;28;20320;-47
2021/10/27 09:35:06;;;;;;;3.70;1.50;;;26.80;92.90;;;;;;5085409;28;20046;-52
2021/10/27 09:47:01;;;;;;;5.90;1.20;;;26.80;93.00;;;;;;5007492;28;20073;-51
2021/10/27 10:06:21;;;;;;;7.22;1.52;;;26.80;92.90;;;;;;5084237;28;20375;-52
2021/10/27 10:08:50;;;;;;;4.40;1.55;;;26.80;92.90;;;;;;5084573;28;20024;-54
2021/10/27 10:11:21;;;;;;;1.92;1.40;;;26.80;92.90;;;;;;5084275;28;20016;-53
2021/10/27 10:13:53;;;;;;;4.78;1.40;;;26.80;93.00;;;;;;5084462;28;20033;-54
2021/10/27 10:16:20;;;;;;;2.50;1.13;;;26.80;92.90;;;;;;5084346;28;20016;-52
2021/10/27 10:18:48;;;;;;;4.40;1.48;;;26.80;92.90;;;;;;5084290;28;20025;-48
2021/10/27 10:21:21;;;;;;;4.78;1.40;;;26.80;92.90;;;;;;5084224;28;20364;-46
2021/10/27 10:23:47;;;;;;;;;;;26.80;92.90;;;;;;5084609;28;20032;-47
2021/10/27 10:26:31;;;;;;;5.88;1.67;;;26.80;92.90;;;;;;5084027;28;19923;-46
2021/10/27 10:28:58;;;;;;;6.03;2.00;;;26.80;92.90;;;;;;5084283;28;20028;-48
2021/10/27 10:31:35;;;;;;;4.43;1.52;;;26.80;92.90;;;;;;5083946;28;20311;-48
2021/10/27 10:34:08;;;;;;;5.93;1.70;;;26.80;92.90;;;;;;5084264;28;20360;-47
2021/10/27 10:36:42;;;;;;;7.97;1.90;;;26.80;92.90;;;;;;5083960;28;20354;-52
2021/10/27 11:23:04;;;;;;;24.40;3.15;;;26.70;93.30;;;;;;5083745;28;20123;-54
2021/10/27 11:42:37;;;;;;;17.10;2.38;;;27.00;93.00;;;;;;5083472;28;20076;-54
2021/10/27 11:45:34;;;;;;;15.05;2.42;;;27.00;93.10;;;;;;5083692;28;20035;-55
2021/10/27 11:48:06;;;;;;;15.32;2.50;;;27.00;93.00;;;;;;5083293;28;20017;-54
2021/10/27 11:50:39;;;;;;;14.18;1.90;;;27.00;92.90;;;;;;5082945;28;20112;-53
2021/10/27 11:53:17;;;;;;;12.43;2.65;;;27.10;92.90;;;;;;5083368;28;20028;-55
2021/10/27 11:55:44;;;;;;;8.73;2.53;;;27.10;92.80;;;;;;5082875;28;20291;-52
2021/10/27 11:58:11;;;;;;;12.20;1.80;;;27.10;92.80;;;;;;5083155;28;20066;-52
2021/10/27 12:00:41;;;;;;;7.22;1.75;;;27.20;92.80;;;;;;5086028;28;20237;-53
2021/10/27 12:06:00;;;;;;;8.95;1.65;;;27.20;92.50;;;;;;5086611;28;20013;-52
2021/10/27 12:08:37;;;;;;;7.50;1.83;;;27.20;92.40;;;;;;5086345;28;20406;-55
2021/10/27 12:13:56;;;;;;;10.80;2.35;;;27.30;92.40;;;;;;5086535;28;20023;-55
2021/10/27 12:19:13;;;;;;;5.38;2.08;;;27.30;92.30;;;;;;5086774;28;20027;-58
2021/10/27 12:21:48;;;;;;;8.77;2.00;;;27.40;92.20;;;;;;5086632;28;20089;-58
2021/10/27 12:24:26;;;;;;;8.57;1.67;;;27.40;92.20;;;;;;5086824;28;20056;-54
2021/10/27 12:27:16;;;;;;;5.43;1.55;;;27.40;92.10;;;;;;5086401;28;20234;-53
2021/10/27 12:29:42;;;;;;;6.78;2.20;;;27.40;92.10;;;;;;5086598;28;20037;-53
2021/10/27 12:32:14;;;;;;;3.67;1.85;;;27.50;92.20;;;;;;5086239;28;20067;-54
2021/10/27 12:34:55;;;;;;;4.03;1.85;;;27.50;92.20;;;;;;5086474;28;20025;-53
2021/10/27 12:37:38;;;;;;;5.53;2.17;;;27.40;92.20;;;;;;5086304;28;20020;-54
2021/10/27 12:40:14;;;;;;;5.30;1.80;;;27.50;92.20;;;;;;5085930;28;20036;-55
2021/10/27 12:42:41;;;;;;;6.28;2.00;;;27.50;92.40;;;;;;5086136;28;20229;-55
2021/10/27 12:45:08;;;;;;;8.23;2.50;;;27.50;92.40;;;;;;5086318;28;20046;-54
2021/10/27 12:47:39;;;;;;;7.75;2.60;;;27.50;92.20;;;;;;5085908;28;20092;-56
2021/10/27 12:50:21;;;;;;;4.32;2.10;;;27.50;92.40;;;;;;5086002;28;20064;-56
2021/10/27 12:52:52;;;;;;;5.38;2.08;;;27.50;92.30;;;;;;5086053;28;20036;-58
2021/10/27 12:55:26;;;;;;;6.32;2.28;;;27.50;92.30;;;;;;5085794;28;20046;-59
2021/10/27 12:57:59;;;;;;;3.70;1.85;;;27.50;92.20;;;;;;5085582;28;20331;-59
2021/10/27 13:15:04;;;;;;;5.60;2.00;;;27.60;92.20;;;;;;5086075;28;20087;-59
2021/10/27 13:17:44;;;;;;;4.22;1.90;;;27.60;92.30;;;;;;5085933;28;20017;-56
2021/10/27 13:23:25;;;;;;;4.93;2.00;;;27.70;92.20;;;;;;5084248;28;20112;-55
2021/10/27 13:31:21;;;;;;;4.47;1.95;;;27.70;92.20;;;;;;5084952;28;20351;-58
2021/10/27 13:33:49;;;;;;;3.85;1.83;;;27.70;92.30;;;;;;5085315;28;20044;-60
2021/10/27 13:36:16;;;;;;;8.32;1.85;;;27.70;92.20;;;;;;5085030;28;20017;-59
2021/10/27 13:38:46;;;;;;;4.68;1.67;;;27.80;92.20;;;;;;5085171;28;20185;-57
2021/10/27 13:41:13;;;;;;;4.53;1.67;;;27.80;92.20;;;;;;5085346;28;20036;-57
2021/10/27 13:44:07;;;;;;;4.10;1.88;;;27.80;92.20;;;;;;5085473;28;20189;-58
2021/10/27 14:08:28;;;;;;;4.53;1.95;;;28.00;91.60;;;;;;5084467;28;20020;-52
2021/10/27 14:10:43;;;;;;;7.30;2.00;;;27.90;91.50;;;;;;5083744;28;20042;-54
2021/10/27 14:50:23;;;;;;;3.20;1.75;;;28.10;90.90;;;;;;5083646;28;20072;-55
2021/10/27 14:58:51;;;;;;;3.28;1.63;;;28.10;90.80;;;;;;5083953;28;20043;-47
2021/10/27 15:21:48;;;;;;;2.90;1.45;;;28.30;90.50;;;;;;5083678;28;20027;-49
2021/10/27 15:24:32;;;;;;;4.40;1.70;;;28.30;90.50;;;;;;5083812;28;20249;-51
2021/10/27 15:30:01;;;;;;;6.82;1.70;;;28.30;90.30;;;;;;5084066;28;20032;-53
2021/10/27 15:32:34;;;;;;;6.03;2.00;;;28.40;90.70;;;;;;5083360;28;20024;-52
2021/10/27 15:40:40;;;;;;;3.28;1.88;;;28.40;90.40;;;;;;5086347;28;20047;-55
2021/10/27 15:51:04;;;;;;;6.50;1.90;;;28.50;90.50;;;;;;5086806;28;20048;-49
2021/10/27 15:53:31;;;;;;;4.03;1.75;;;28.50;90.50;;;;;;5086810;28;20025;-51
2021/10/27 15:55:58;;;;;;;4.75;1.40;;;28.50;90.40;;;;;;5086942;28;20021;-49
2021/10/27 15:58:24;;;;;;;3.60;1.60;;;28.50;90.40;;;;;;5087241;28;20092;-53
2021/10/27 16:00:51;;;;;;;3.13;1.40;;;28.50;90.40;;;;;;5086685;28;20020;-53
2021/10/27 16:03:17;;;;;;;2.60;1.55;;;28.50;90.30;;;;;;5087089;28;20031;-53
2021/10/27 16:05:46;;;;;;;3.55;1.33;;;28.50;90.00;;;;;;5087180;28;20305;-53
2021/10/27 16:08:16;;;;;;;2.80;1.30;;;28.50;90.10;;;;;;5086938;28;20313;-57
2021/10/27 16:10:43;;;;;;;5.32;1.70;;;28.60;90.00;;;;;;5087119;28;20259;-58
2021/10/27 16:13:10;;;;;;;4.10;1.88;;;28.60;90.00;;;;;;5087308;28;20023;-60
2021/10/27 16:15:38;;;;;;;4.60;1.88;;;28.60;89.90;;;;;;5087160;28;20076;-61
2021/10/27 16:18:13;;;;;;;2.78;1.52;;;28.60;89.80;;;;;;5086670;28;20223;-61
2021/10/27 16:20:42;;;;;;;3.03;1.45;;;28.60;89.60;;;;;;5086692;28;20199;-55
2021/10/27 16:23:10;;;;;;;2.95;1.40;;;28.60;89.60;;;;;;5086906;28;20046;-58
2021/10/27 16:25:37;;;;;;;4.85;1.70;;;28.60;89.70;;;;;;5085406;28;20137;-56
2021/10/27 16:28:05;;;;;;;3.70;1.60;;;28.60;89.90;;;;;;5086386;28;20209;-54
2021/10/27 16:30:32;;;;;;;4.38;1.70;;;28.60;89.80;;;;;;5086174;28;20438;-55
2021/10/27 16:32:59;;;;;;;3.63;1.63;;;28.60;89.80;;;;;;5086406;28;20024;-53
2021/10/27 16:35:26;;;;;;;3.58;1.83;;;28.60;89.60;;;;;;5086594;28;20062;-54
2021/10/27 16:37:52;;;;;;;3.10;1.55;;;28.60;89.60;;;;;;5086148;28;20020;-56
2021/10/27 16:40:19;;;;;;;4.35;1.90;;;28.70;89.30;;;;;;5086170;28;20024;-57
2021/10/27 16:42:47;;;;;;;4.00;1.67;;;28.70;89.20;;;;;;5086069;28;20017;-54
2021/10/27 16:45:16;;;;;;;3.15;1.77;;;28.70;89.20;;;;;;5084152;28;20031;-59
2021/10/27 16:47:44;;;;;;;4.20;1.58;;;28.70;89.00;;;;;;5086126;28;20321;-59
2021/10/27 16:50:13;;;;;;;4.43;1.50;;;28.70;88.90;;;;;;5085866;28;20056;-57
2021/10/27 16:52:40;;;;;;;4.93;1.60;;;28.80;89.10;;;;;;5085810;28;20020;-49
2021/10/27 16:55:08;;;;;;;3.05;1.50;;;28.80;88.90;;;;;;5085700;28;20016;-53
2021/10/27 16:57:35;;;;;;;5.47;1.50;;;28.80;88.70;;;;;;5085598;28;20036;-54
2021/10/27 17:00:04;;;;;;;2.53;1.20;;;28.80;88.90;;;;;;5084818;28;20320;-52
2021/10/27 17:02:32;;;;;;;2.65;1.80;;;28.80;89.00;;;;;;5085750;28;20050;-54
2021/10/27 17:04:58;;;;;;;5.80;3.42;;;28.90;88.80;;;;;;5084663;28;20074;-51
2021/10/27 17:07:26;;;;;;;5.53;2.65;;;28.90;88.70;;;;;;5084559;28;20030;-52
2021/10/27 17:09:52;;;;;;;4.30;2.10;;;28.90;88.70;;;;;;5085832;28;20074;-54
2021/10/27 17:12:19;;;;;;;4.57;1.98;;;28.90;88.30;;;;;;5085358;28;20027;-57
2021/10/27 17:14:46;;;;;;;4.30;1.70;;;29.00;88.50;;;;;;5085831;28;20032;-52
2021/10/27 17:17:12;;;;;;;4.95;1.83;;;29.00;88.10;;;;;;5085447;28;20409;-53
2021/10/27 17:19:40;;;;;;;4.07;1.60;;;29.00;87.10;;;;;;5084346;28;20216;-54
2021/10/27 17:22:11;;;;;;;4.38;1.65;;;29.00;87.50;;;;;;5085347;28;20026;-53
2021/10/27 17:24:39;;;;;;;3.25;1.65;;;29.00;87.10;;;;;;5085782;28;20309;-54
2021/10/27 17:27:06;;;;;;;3.35;1.60;;;29.00;87.40;;;;;;5085115;28;20020;-54